Time;durP1;ratioP1;P1;durP2;ratioP2;P2;SDS_P1;SDS_P2;PMS_P1;PMS_P2;Temp;Humidity;BMP_temperature;BMP_pressure;BME280_temperature;BME280_humidity;BME280_pressure;Samples;Min_cycle;Max_cycle;Signal;HPM_P1;HPM_P2
2021/03/25 00:01:19;;;;;;;47.30;27.33;;;;;;;;;;5100117;28;20205;-61
2021/03/25 00:03:47;;;;;;;43.50;26.98;;;;;;;;;;5102367;28;20219;-60
2021/03/25 00:06:14;;;;;;;43.80;27.40;;;;;;;;;;5104764;28;20213;-61
2021/03/25 00:08:40;;;;;;;49.33;28.50;;;;;;;;;;5102547;28;20225;-60
2021/03/25 00:11:07;;;;;;;51.15;30.75;;;;;;;;;;5100073;28;20207;-60
2021/03/25 00:13:34;;;;;;;53.53;30.20;;;;;;;;;;5098947;28;20684;-61
2021/03/25 00:16:01;;;;;;;47.20;27.90;;;;;;;;;;5098512;28;20202;-61
2021/03/25 00:18:28;;;;;;;48.83;29.13;;;;;;;;;;5102495;28;20198;-60
2021/03/25 00:20:55;;;;;;;46.97;30.25;;;;;;;;;;5105277;28;20209;-61
2021/03/25 00:23:22;;;;;;;49.80;29.95;;;;;;;;;;5107401;28;20217;-61
2021/03/25 00:25:48;;;;;;;53.25;31.50;;;;;;;;;;5105444;28;20230;-61
2021/03/25 00:28:17;;;;;;;54.85;30.50;;;;;;;;;;5100561;28;20225;-61
2021/03/25 00:30:44;;;;;;;50.92;29.20;;;;;;;;;;5098505;28;20215;-61
2021/03/25 00:33:13;;;;;;;47.30;29.98;;;;;;;;;;5098206;28;20202;-61
2021/03/25 00:35:42;;;;;;;50.45;31.17;;;;;;;;;;5097968;28;20223;-61
2021/03/25 00:38:09;;;;;;;51.33;32.08;;;;;;;;;;5097895;28;20209;-60
2021/03/25 00:40:35;;;;;;;53.72;29.73;;;;;;;;;;5097796;28;20197;-61
2021/03/25 00:43:02;;;;;;;52.65;31.63;;;;;;;;;;5098294;28;20198;-61
2021/03/25 00:45:31;;;;;;;54.05;32.15;;;;;;;;;;5097852;28;20307;-60
2021/03/25 00:47:58;;;;;;;61.80;34.10;;;;;;;;;;5097530;28;20213;-61
2021/03/25 00:50:28;;;;;;;53.08;32.80;;;;;;;;;;5096936;28;20729;-61
2021/03/25 00:52:55;;;;;;;52.03;31.80;;;;;;;;;;5097048;28;20670;-60
2021/03/25 00:55:22;;;;;;;57.60;32.38;;;;;;;;;;5097088;28;20229;-61
2021/03/25 00:57:49;;;;;;;56.72;33.25;;;;;;;;;;5097243;28;20208;-60
2021/03/25 01:00:18;;;;;;;48.45;30.50;;;;;;;;;;5096749;28;20200;-61
2021/03/25 01:02:44;;;;;;;52.00;30.15;;;;;;;;;;5096747;28;20208;-60
2021/03/25 01:05:12;;;;;;;56.95;31.75;;;;;;;;;;5097130;28;20224;-61
2021/03/25 01:07:39;;;;;;;52.20;29.50;;;;;;;;;;5096578;28;20264;-60
2021/03/25 01:10:12;;;;;;;53.20;31.77;;;;;;;;;;5097013;28;20203;-61
2021/03/25 01:12:38;;;;;;;50.80;31.15;;;;;;;;;;5097181;28;20231;-61
2021/03/25 01:15:06;;;;;;;56.42;31.88;;;;;;;;;;5098931;28;20227;-61
2021/03/25 01:17:33;;;;;;;52.15;33.70;;;;;;;;;;5096800;28;20211;-61
2021/03/25 01:20:00;;;;;;;59.25;33.92;;;;;;;;;;5096901;28;20196;-61
2021/03/25 01:22:27;;;;;;;54.13;33.42;;;;;;;;;;5097323;28;20197;-61
2021/03/25 01:24:54;;;;;;;55.40;33.13;;;;;;;;;;5097495;28;20220;-61
2021/03/25 01:27:21;;;;;;;60.13;33.40;;;;;;;;;;5098485;28;20204;-62
2021/03/25 01:29:48;;;;;;;55.10;32.08;;;;;;;;;;5097268;28;20270;-60
2021/03/25 01:32:15;;;;;;;55.15;34.30;;;;;;;;;;5096970;28;20200;-62
2021/03/25 01:34:41;;;;;;;54.92;33.70;;;;;;;;;;5095396;28;20245;-61
2021/03/25 01:37:08;;;;;;;66.00;33.83;;;;;;;;;;5096368;28;20200;-61
2021/03/25 01:39:36;;;;;;;58.67;34.30;;;;;;;;;;5096314;28;20196;-61
2021/03/25 01:42:03;;;;;;;60.72;34.85;;;;;;;;;;5096358;28;20207;-60
2021/03/25 01:44:35;;;;;;;62.80;34.63;;;;;;;;;;5096098;28;20221;-61
2021/03/25 01:47:04;;;;;;;56.17;32.85;;;;;;;;;;5096269;28;20207;-61
2021/03/25 01:49:31;;;;;;;54.58;32.28;;;;;;;;;;5095842;28;20221;-60
2021/03/25 01:52:07;;;;;;;61.63;34.30;;;;;;;;;;5096108;28;20206;-60
2021/03/25 01:54:48;;;;;;;59.33;34.70;;;;;;;;;;5095941;28;20220;-60
2021/03/25 01:57:26;;;;;;;56.95;33.25;;;;;;;;;;5093496;28;20196;-61
2021/03/25 02:00:09;;;;;;;60.05;33.47;;;;;;;;;;5096003;28;20188;-61
2021/03/25 02:02:38;;;;;;;57.00;34.13;;;;;;;;;;5094033;28;20246;-60
2021/03/25 02:05:12;;;;;;;64.45;34.85;;;;;;;;;;5095376;28;20216;-60
2021/03/25 02:07:43;;;;;;;54.60;34.22;;;;;;;;;;5095467;28;20224;-60
2021/03/25 02:10:15;;;;;;;56.22;33.75;;;;;;;;;;5095482;28;20590;-60
2021/03/25 02:12:48;;;;;;;56.15;32.33;;;;;;;;;;5095577;28;20655;-60
2021/03/25 02:15:20;;;;;;;56.88;32.78;;;;;;;;;;5095693;28;20242;-60
2021/03/25 02:17:51;;;;;;;66.05;34.55;;;;;;;;;;5095614;28;20185;-60
2021/03/25 02:20:31;;;;;;;55.42;33.67;;;;;;;;;;5095378;28;20196;-60
2021/03/25 02:23:07;;;;;;;57.30;34.42;;;;;;;;;;5095583;28;20184;-62
2021/03/25 02:25:36;;;;;;;65.65;34.10;;;;;;;;;;5100955;28;20764;-61
2021/03/25 02:28:07;;;;;;;63.05;34.90;;;;;;;;;;5099628;28;20634;-61
2021/03/25 02:30:37;;;;;;;55.38;33.28;;;;;;;;;;5097169;28;20186;-60
2021/03/25 02:33:07;;;;;;;55.33;34.55;;;;;;;;;;5096136;28;20200;-62
2021/03/25 02:35:36;;;;;;;58.90;33.70;;;;;;;;;;5096325;28;20219;-61
2021/03/25 02:38:06;;;;;;;62.33;33.95;;;;;;;;;;5095650;28;20200;-61
2021/03/25 02:40:34;;;;;;;62.08;33.80;;;;;;;;;;5095703;28;20668;-60
2021/03/25 02:43:03;;;;;;;64.72;34.35;;;;;;;;;;5095278;28;20223;-62
2021/03/25 02:45:32;;;;;;;56.28;34.83;;;;;;;;;;5094820;28;20241;-61
2021/03/25 02:48:01;;;;;;;54.65;31.77;;;;;;;;;;5094371;28;20211;-61
2021/03/25 02:50:31;;;;;;;59.97;34.28;;;;;;;;;;5096542;28;20204;-59
2021/03/25 02:52:59;;;;;;;54.65;32.80;;;;;;;;;;5100665;28;20201;-60
2021/03/25 02:55:27;;;;;;;56.00;31.95;;;;;;;;;;5100083;28;20286;-60
2021/03/25 02:57:58;;;;;;;59.08;32.65;;;;;;;;;;5097432;28;20204;-61
2021/03/25 03:00:27;;;;;;;60.30;34.33;;;;;;;;;;5096453;28;20189;-61
2021/03/25 03:02:57;;;;;;;48.20;30.67;;;;;;;;;;5095963;28;20205;-60
2021/03/25 03:05:25;;;;;;;56.17;34.35;;;;;;;;;;5098534;28;20255;-62
2021/03/25 03:07:56;;;;;;;60.60;33.83;;;;;;;;;;5095019;28;20216;-60
2021/03/25 03:10:25;;;;;;;61.10;34.95;;;;;;;;;;5096008;28;20192;-60
2021/03/25 03:12:54;;;;;;;61.03;33.20;;;;;;;;;;5098427;28;20209;-61
2021/03/25 03:15:24;;;;;;;61.92;34.00;;;;;;;;;;5095224;28;20227;-59
2021/03/25 03:17:54;;;;;;;57.80;33.17;;;;;;;;;;5094658;28;20200;-61
2021/03/25 03:20:23;;;;;;;62.92;34.28;;;;;;;;;;5094629;28;20227;-60
2021/03/25 03:22:50;;;;;;;61.63;33.80;;;;;;;;;;5099025;28;20225;-61
2021/03/25 03:25:20;;;;;;;58.95;34.30;;;;;;;;;;5095896;28;20216;-61
2021/03/25 03:27:48;;;;;;;63.25;34.70;;;;;;;;;;5095566;28;20200;-60
2021/03/25 03:30:19;;;;;;;60.28;35.38;;;;;;;;;;5110935;28;20651;-60
2021/03/25 03:32:48;;;;;;;67.95;37.08;;;;;;;;;;5111361;28;20184;-61
2021/03/25 03:35:18;;;;;;;62.75;35.50;;;;;;;;;;5113560;28;20250;-59
2021/03/25 03:37:46;;;;;;;69.28;36.45;;;;;;;;;;5110878;28;20196;-60
2021/03/25 03:40:16;;;;;;;64.80;38.63;;;;;;;;;;5105364;28;20204;-61
2021/03/25 03:42:44;;;;;;;67.63;36.85;;;;;;;;;;5107108;28;20208;-59
2021/03/25 03:45:13;;;;;;;69.07;38.83;;;;;;;;;;5103563;28;20624;-60
2021/03/25 03:47:41;;;;;;;57.20;34.05;;;;;;;;;;5100121;28;20259;-60
2021/03/25 03:50:13;;;;;;;61.50;35.65;;;;;;;;;;5097081;28;20220;-60
2021/03/25 03:52:40;;;;;;;59.00;35.65;;;;;;;;;;5101278;28;20188;-60
2021/03/25 03:55:08;;;;;;;62.50;35.95;;;;;;;;;;5099678;28;20640;-60
2021/03/25 03:57:37;;;;;;;68.70;37.47;;;;;;;;;;5093451;28;20305;-60
2021/03/25 04:00:07;;;;;;;65.13;38.55;;;;;;;;;;5094235;28;20253;-61
2021/03/25 04:02:35;;;;;;;64.93;36.65;;;;;;;;;;5094019;28;20204;-60
2021/03/25 04:08:00;;;;;;;62.25;33.40;;;;;;;;;;5112447;27;20594;-60
2021/03/25 04:10:29;;;;;;;59.38;33.70;;;;;;;;;;5111340;28;20185;-60
2021/03/25 04:12:59;;;;;;;57.80;34.88;;;;;;;;;;5111589;28;20206;-60
2021/03/25 04:15:27;;;;;;;58.83;36.53;;;;;;;;;;5111379;28;20230;-61
2021/03/25 04:17:55;;;;;;;63.13;36.88;;;;;;;;;;5111266;28;20282;-61
2021/03/25 04:20:23;;;;;;;60.30;37.50;;;;;;;;;;5111306;28;20273;-59
2021/03/25 04:22:51;;;;;;;64.68;37.85;;;;;;;;;;5111400;28;20204;-59
2021/03/25 04:25:22;;;;;;;70.97;37.55;;;;;;;;;;5110833;28;20777;-60
2021/03/25 04:27:52;;;;;;;59.42;37.05;;;;;;;;;;5110707;28;20203;-59
2021/03/25 04:30:20;;;;;;;61.22;36.13;;;;;;;;;;5111161;28;20360;-60
2021/03/25 04:32:48;;;;;;;61.38;35.40;;;;;;;;;;5111171;28;20575;-60
2021/03/25 04:35:16;;;;;;;55.97;36.58;;;;;;;;;;5111153;28;20272;-61
2021/03/25 04:37:43;;;;;;;56.17;34.92;;;;;;;;;;5113754;28;20204;-60
2021/03/25 04:40:11;;;;;;;61.58;35.58;;;;;;;;;;5120850;28;20207;-59
2021/03/25 04:42:41;;;;;;;70.50;38.72;;;;;;;;;;5121631;28;20196;-60
2021/03/25 04:45:09;;;;;;;61.05;37.13;;;;;;;;;;5114115;28;20220;-61
2021/03/25 04:47:37;;;;;;;60.00;36.30;;;;;;;;;;5111455;28;20217;-60
2021/03/25 04:50:06;;;;;;;63.63;36.75;;;;;;;;;;5111865;28;20200;-61
2021/03/25 04:52:34;;;;;;;64.65;38.60;;;;;;;;;;5112574;28;20575;-61
2021/03/25 04:55:05;;;;;;;65.05;37.05;;;;;;;;;;5111830;28;20222;-60
2021/03/25 04:57:34;;;;;;;70.95;37.30;;;;;;;;;;5111121;28;20183;-60
2021/03/25 05:00:05;;;;;;;64.97;37.50;;;;;;;;;;5110482;28;20201;-60
2021/03/25 05:02:34;;;;;;;62.85;36.97;;;;;;;;;;5110498;28;20186;-60
2021/03/25 05:05:01;;;;;;;57.75;35.40;;;;;;;;;;5110980;28;20220;-62
2021/03/25 05:07:29;;;;;;;61.55;36.53;;;;;;;;;;5110221;28;20220;-61
2021/03/25 05:09:56;;;;;;;62.97;35.78;;;;;;;;;;5110022;28;20680;-60
2021/03/25 05:12:23;;;;;;;63.17;35.40;;;;;;;;;;5110426;28;20224;-60
2021/03/25 05:14:53;;;;;;;62.60;36.00;;;;;;;;;;5110554;28;20232;-60
2021/03/25 05:17:30;;;;;;;62.70;36.90;;;;;;;;;;5108011;28;20204;-59
2021/03/25 05:19:58;;;;;;;62.08;33.30;;;;;;;;;;5097968;28;20190;-60
2021/03/25 05:22:29;;;;;;;63.13;37.08;;;;;;;;;;5097720;28;20652;-59
2021/03/25 05:24:59;;;;;;;70.68;37.42;;;;;;;;;;5097292;28;20243;-59
2021/03/25 05:27:29;;;;;;;66.00;36.72;;;;;;;;;;5096612;28;20218;-59
2021/03/25 05:29:58;;;;;;;75.60;38.45;;;;;;;;;;5096711;28;20211;-60
2021/03/25 05:32:28;;;;;;;76.05;37.22;;;;;;;;;;5096194;28;20689;-60
2021/03/25 05:34:55;;;;;;;59.30;36.40;;;;;;;;;;5096373;28;20230;-61
2021/03/25 05:37:22;;;;;;;56.05;32.85;;;;;;;;;;5096931;28;20199;-59
2021/03/25 05:39:49;;;;;;;61.90;33.13;;;;;;;;;;5096852;28;20661;-60
2021/03/25 05:42:20;;;;;;;57.08;33.72;;;;;;;;;;5095930;28;20678;-60
2021/03/25 05:45:05;;;;;;;64.22;35.58;;;;;;;;;;5097088;28;20243;-60
2021/03/25 05:47:40;;;;;;;62.33;34.20;;;;;;;;;;5104891;28;20208;-60
2021/03/25 05:50:15;;;;;;;56.45;33.75;;;;;;;;;;5101289;28;20185;-59
2021/03/25 05:52:46;;;;;;;56.63;35.00;;;;;;;;;;5098427;28;20287;-60
2021/03/25 05:55:24;;;;;;;69.93;34.35;;;;;;;;;;5100662;28;20629;-61
2021/03/25 05:58:01;;;;;;;54.50;33.78;;;;;;;;;;5106370;28;20548;-61
2021/03/25 06:00:31;;;;;;;60.33;32.95;;;;;;;;;;5097692;28;20195;-60
2021/03/25 06:03:01;;;;;;;62.22;35.45;;;;;;;;;;5097188;28;20200;-61
2021/03/25 06:05:28;;;;;;;57.72;34.45;;;;;;;;;;5096078;28;20643;-60
2021/03/25 06:08:03;;;;;;;58.80;34.08;;;;;;;;;;5095733;28;20224;-61
2021/03/25 06:10:36;;;;;;;53.95;34.08;;;;;;;;;;5096784;28;20180;-60
2021/03/25 06:13:08;;;;;;;57.05;33.95;;;;;;;;;;5095838;28;20184;-61
2021/03/25 06:15:49;;;;;;;53.10;33.20;;;;;;;;;;5095337;28;20280;-60
2021/03/25 06:18:23;;;;;;;59.70;32.88;;;;;;;;;;5095306;28;20190;-60
2021/03/25 06:20:58;;;;;;;55.40;33.17;;;;;;;;;;5095456;28;20608;-61
2021/03/25 06:23:30;;;;;;;58.13;35.75;;;;;;;;;;5095369;28;20187;-60
2021/03/25 06:26:12;;;;;;;53.85;33.00;;;;;;;;;;5095091;28;20663;-62
2021/03/25 06:28:40;;;;;;;57.97;34.10;;;;;;;;;;5095353;28;20187;-60
2021/03/25 06:31:12;;;;;;;59.38;34.45;;;;;;;;;;5095404;28;20204;-59
2021/03/25 06:33:44;;;;;;;54.58;34.67;;;;;;;;;;5095211;28;20192;-61
2021/03/25 06:36:13;;;;;;;62.28;35.65;;;;;;;;;;5095825;28;20176;-60
2021/03/25 06:38:42;;;;;;;60.92;36.72;;;;;;;;;;5094989;28;20218;-59
2021/03/25 06:41:13;;;;;;;57.80;34.67;;;;;;;;;;5094804;28;20207;-60
2021/03/25 06:43:41;;;;;;;54.75;33.28;;;;;;;;;;5095483;28;20185;-61
2021/03/25 06:46:12;;;;;;;57.10;34.15;;;;;;;;;;5094996;28;20215;-60
2021/03/25 06:48:42;;;;;;;61.42;34.30;;;;;;;;;;5094955;28;20184;-62
2021/03/25 06:51:17;;;;;;;54.80;33.22;;;;;;;;;;5094734;28;20568;-60
2021/03/25 06:53:44;;;;;;;65.25;35.58;;;;;;;;;;5095169;28;20203;-60
2021/03/25 06:56:14;;;;;;;60.10;33.60;;;;;;;;;;5095551;28;20196;-61
2021/03/25 06:58:45;;;;;;;56.20;34.00;;;;;;;;;;5095236;28;20203;-59
2021/03/25 07:01:21;;;;;;;58.25;33.60;;;;;;;;;;5094481;28;20256;-60
2021/03/25 07:03:51;;;;;;;59.75;33.90;;;;;;;;;;5094909;28;20180;-61
2021/03/25 07:06:17;;;;;;;59.42;36.35;;;;;;;;;;5095044;28;20216;-61
2021/03/25 07:08:44;;;;;;;53.80;33.45;;;;;;;;;;5094110;28;20199;-60
2021/03/25 07:11:15;;;;;;;53.47;33.15;;;;;;;;;;5094442;28;20203;-60
2021/03/25 07:13:43;;;;;;;57.35;35.55;;;;;;;;;;5094052;28;20713;-60
2021/03/25 07:16:11;;;;;;;57.03;34.80;;;;;;;;;;5094634;28;20245;-60
2021/03/25 07:18:44;;;;;;;53.65;33.95;;;;;;;;;;5094875;28;20226;-61
2021/03/25 07:21:22;;;;;;;59.05;33.97;;;;;;;;;;5094935;28;20196;-60
2021/03/25 07:23:50;;;;;;;58.22;37.65;;;;;;;;;;5094469;28;20225;-62
2021/03/25 07:26:21;;;;;;;59.17;35.72;;;;;;;;;;5094464;28;20534;-61
2021/03/25 07:28:57;;;;;;;64.07;36.40;;;;;;;;;;5094102;28;20199;-60
2021/03/25 07:31:28;;;;;;;57.28;34.53;;;;;;;;;;5094340;28;20192;-61
2021/03/25 07:33:55;;;;;;;54.95;33.97;;;;;;;;;;5094149;28;20271;-61
2021/03/25 07:36:23;;;;;;;55.13;36.97;;;;;;;;;;5094154;28;20207;-60
2021/03/25 07:38:49;;;;;;;58.50;35.72;;;;;;;;;;5094244;28;20253;-61
2021/03/25 07:41:20;;;;;;;51.47;32.63;;;;;;;;;;5095982;28;20204;-60
2021/03/25 07:43:52;;;;;;;57.05;35.70;;;;;;;;;;5095611;28;20188;-60
2021/03/25 07:46:20;;;;;;;54.42;34.95;;;;;;;;;;5094856;28;20265;-60
2021/03/25 07:48:57;;;;;;;54.63;35.05;;;;;;;;;;5094756;28;20255;-60
2021/03/25 07:51:25;;;;;;;54.17;34.15;;;;;;;;;;5094308;28;20204;-61
2021/03/25 07:54:07;;;;;;;57.30;35.90;;;;;;;;;;5097292;28;20612;-61
2021/03/25 07:56:34;;;;;;;58.65;35.58;;;;;;;;;;5107616;28;20192;-61
2021/03/25 07:59:00;;;;;;;60.08;35.60;;;;;;;;;;5109616;28;20204;-61
2021/03/25 08:01:27;;;;;;;57.50;35.47;;;;;;;;;;5112181;28;20196;-61
2021/03/25 08:03:54;;;;;;;60.58;35.47;;;;;;;;;;5110811;28;20217;-60
2021/03/25 08:06:24;;;;;;;52.63;34.57;;;;;;;;;;5110113;28;20216;-61
2021/03/25 08:09:05;;;;;;;58.38;33.67;;;;;;;;;;5106489;28;20891;-60
2021/03/25 08:11:33;;;;;;;52.73;33.90;;;;;;;;;;5103554;28;20196;-61
2021/03/25 08:14:01;;;;;;;56.58;34.92;;;;;;;;;;5103241;28;20536;-59
2021/03/25 08:16:30;;;;;;;52.57;31.97;;;;;;;;;;5103372;28;20202;-61
2021/03/25 08:19:03;;;;;;;53.03;36.30;;;;;;;;;;5099167;28;20793;-61
2021/03/25 08:21:39;;;;;;;53.57;34.10;;;;;;;;;;5098837;28;20479;-60
2021/03/25 08:24:16;;;;;;;58.78;35.55;;;;;;;;;;5099641;28;20517;-61
2021/03/25 08:26:50;;;;;;;56.33;37.97;;;;;;;;;;5099097;28;20743;-59
2021/03/25 08:29:19;;;;;;;54.90;37.07;;;;;;;;;;5100151;28;20494;-61
2021/03/25 08:31:54;;;;;;;54.77;35.13;;;;;;;;;;5098781;28;20450;-59
2021/03/25 08:34:34;;;;;;;66.40;36.13;;;;;;;;;;5097932;28;20485;-61
2021/03/25 08:37:10;;;;;;;52.10;33.77;;;;;;;;;;5097305;28;20426;-60
2021/03/25 08:39:45;;;;;;;54.13;35.23;;;;;;;;;;5097130;28;20434;-60
2021/03/25 08:42:16;;;;;;;55.13;34.70;;;;;;;;;;5097021;28;20422;-60
2021/03/25 08:44:45;;;;;;;59.20;36.17;;;;;;;;;;5094890;28;20794;-60
2021/03/25 08:47:16;;;;;;;52.43;35.80;;;;;;;;;;5097424;28;20712;-61
2021/03/25 08:49:47;;;;;;;49.40;33.63;;;;;;;;;;5095822;28;20430;-63
2021/03/25 08:52:15;;;;;;;51.93;32.50;;;;;;;;;;5095845;28;20484;-60
2021/03/25 08:54:45;;;;;;;59.73;33.50;;;;;;;;;;5098936;28;20457;-60
2021/03/25 08:57:16;;;;;;;50.77;31.23;;;;;;;;;;5098329;28;20447;-61
2021/03/25 08:59:45;;;;;;;47.40;31.10;;;;;;;;;;5098125;28;20526;-60
2021/03/25 09:02:14;;;;;;;49.73;30.73;;;;;;;;;;5098666;28;20468;-60
2021/03/25 09:04:46;;;;;;;45.07;30.53;;;;;;;;;;5098414;28;20487;-60
2021/03/25 09:07:13;;;;;;;51.20;30.57;;;;;;;;;;5104595;28;20489;-61
2021/03/25 09:09:42;;;;;;;45.85;32.40;;;;;;;;;;5111761;28;20432;-61
2021/03/25 09:12:21;;;;;;;46.40;29.70;;;;;;;;;;5107509;28;20212;-62
2021/03/25 09:14:48;;;;;;;43.17;29.40;;;;;;;;;;5099884;28;20463;-61
2021/03/25 09:17:16;;;;;;;46.27;32.17;;;;;;;;;;5098159;28;20446;-61
2021/03/25 09:19:46;;;;;;;48.00;32.23;;;;;;;;;;5098281;28;20453;-60
2021/03/25 09:22:27;;;;;;;44.57;30.50;;;;;;;;;;5100532;28;20448;-61
2021/03/25 09:25:09;;;;;;;44.90;30.47;;;;;;;;;;5100093;28;20465;-60
2021/03/25 09:27:51;;;;;;;45.57;29.73;;;;;;;;;;5098587;28;20466;-61
2021/03/25 09:30:29;;;;;;;40.60;29.03;;;;;;;;;;5097914;28;20423;-60
2021/03/25 09:33:16;;;;;;;49.10;32.37;;;;;;;;;;5097475;28;20430;-61
2021/03/25 09:35:45;;;;;;;45.53;29.97;;;;;;;;;;5096976;28;20492;-61
2021/03/25 09:38:14;;;;;;;43.67;29.00;;;;;;;;;;5097136;28;20439;-60
2021/03/25 09:40:45;;;;;;;44.53;30.70;;;;;;;;;;5096538;28;20454;-60
2021/03/25 09:43:30;;;;;;;43.60;30.50;;;;;;;;;;5096830;28;20454;-59
2021/03/25 09:45:58;;;;;;;48.33;28.67;;;;;;;;;;5096310;28;20792;-59
2021/03/25 09:48:26;;;;;;;51.33;31.27;;;;;;;;;;5096487;28;20806;-61
2021/03/25 09:51:03;;;;;;;41.43;28.20;;;;;;;;;;5096786;28;20443;-60
2021/03/25 09:53:44;;;;;;;41.53;28.67;;;;;;;;;;5096451;28;20499;-61
2021/03/25 09:56:22;;;;;;;45.22;32.13;;;;;;;;;;5095095;28;20432;-61
2021/03/25 09:58:49;;;;;;;48.03;30.73;;;;;;;;;;5096903;28;20184;-61
2021/03/25 10:01:35;;;;;;;44.83;28.43;;;;;;;;;;5095695;28;20495;-60
2021/03/25 10:04:05;;;;;;;44.83;29.30;;;;;;;;;;5096908;28;20858;-61
2021/03/25 10:06:54;;;;;;;40.97;28.50;;;;;;;;;;5096251;28;20500;-61
2021/03/25 10:09:36;;;;;;;46.33;29.37;;;;;;;;;;5096309;28;20905;-61
2021/03/25 10:12:02;;;;;;;46.93;28.93;;;;;;;;;;5097091;28;20442;-60
2021/03/25 10:14:51;;;;;;;43.53;29.27;;;;;;;;;;5095813;28;20647;-60
2021/03/25 10:17:36;;;;;;;41.03;27.90;;;;;;;;;;5096470;28;20421;-59
2021/03/25 10:20:04;;;;;;;43.50;29.97;;;;;;;;;;5096795;28;20538;-61
2021/03/25 10:22:31;;;;;;;47.80;32.00;;;;;;;;;;5097043;28;20887;-60
2021/03/25 10:24:58;;;;;;;45.80;32.77;;;;;;;;;;5097022;28;20470;-61
2021/03/25 10:27:32;;;;;;;45.77;32.67;;;;;;;;;;5095786;28;20481;-60
2021/03/25 10:30:03;;;;;;;45.33;31.77;;;;;;;;;;5095778;28;20430;-60
2021/03/25 10:32:33;;;;;;;55.90;34.73;;;;;;;;;;5094942;28;20438;-61
2021/03/25 10:35:01;;;;;;;50.00;32.60;;;;;;;;;;5094540;28;20545;-61
2021/03/25 10:37:31;;;;;;;52.97;35.27;;;;;;;;;;5095230;28;20468;-61
2021/03/25 10:40:00;;;;;;;52.23;35.33;;;;;;;;;;5095149;28;21003;-61
2021/03/25 10:42:28;;;;;;;57.30;36.50;;;;;;;;;;5094746;28;20453;-60
2021/03/25 10:44:55;;;;;;;49.43;33.50;;;;;;;;;;5097016;28;20466;-60
2021/03/25 10:47:23;;;;;;;55.33;37.53;;;;;;;;;;5094712;28;20477;-60
2021/03/25 10:49:51;;;;;;;48.03;34.27;;;;;;;;;;5094083;28;20485;-60
2021/03/25 10:52:19;;;;;;;46.73;34.30;;;;;;;;;;5094813;28;20496;-60
2021/03/25 10:54:47;;;;;;;54.97;36.70;;;;;;;;;;5094272;28;20462;-61
2021/03/25 10:57:18;;;;;;;51.77;36.57;;;;;;;;;;5094816;28;20767;-61
2021/03/25 10:59:50;;;;;;;50.47;33.70;;;;;;;;;;5095060;28;20426;-60
2021/03/25 11:02:19;;;;;;;50.73;35.00;;;;;;;;;;5094430;28;20926;-60
2021/03/25 11:04:46;;;;;;;54.10;35.77;;;;;;;;;;5094466;28;20484;-61
2021/03/25 11:07:16;;;;;;;57.40;37.00;;;;;;;;;;5095139;28;20482;-61
2021/03/25 11:09:53;;;;;;;60.13;36.57;;;;;;;;;;5094438;28;20454;-61
2021/03/25 11:12:23;;;;;;;51.47;37.10;;;;;;;;;;5094626;28;20445;-60
2021/03/25 11:14:51;;;;;;;56.20;39.10;;;;;;;;;;5094382;28;20462;-61
2021/03/25 11:17:20;;;;;;;55.10;38.90;;;;;;;;;;5094285;28;20453;-61
2021/03/25 11:19:48;;;;;;;57.70;38.67;;;;;;;;;;5094887;28;20449;-61
2021/03/25 11:22:15;;;;;;;54.23;37.60;;;;;;;;;;5094148;28;20922;-58
2021/03/25 11:24:42;;;;;;;59.67;40.67;;;;;;;;;;5094108;28;20462;-61
2021/03/25 11:27:13;;;;;;;62.30;43.67;;;;;;;;;;5094226;28;20503;-61
2021/03/25 11:29:41;;;;;;;57.67;39.90;;;;;;;;;;5094386;28;20441;-61
2021/03/25 11:32:12;;;;;;;62.40;44.00;;;;;;;;;;5094474;28;20488;-60
2021/03/25 11:34:41;;;;;;;59.97;39.27;;;;;;;;;;5093758;28;20466;-60
2021/03/25 11:37:15;;;;;;;56.87;43.07;;;;;;;;;;5092931;28;20529;-60
2021/03/25 11:39:57;;;;;;;55.20;41.50;;;;;;;;;;5096026;28;20446;-60
2021/03/25 11:42:26;;;;;;;64.20;42.03;;;;;;;;;;5093833;28;20484;-61
2021/03/25 11:44:54;;;;;;;55.55;41.45;;;;;;;;;;5093822;28;20494;-62
2021/03/25 11:47:25;;;;;;;65.10;43.63;;;;;;;;;;5093116;28;20445;-61
2021/03/25 11:49:52;;;;;;;66.20;44.40;;;;;;;;;;5093972;28;20250;-60
2021/03/25 11:52:19;;;;;;;60.57;42.30;;;;;;;;;;5093579;28;21004;-62
2021/03/25 11:54:48;;;;;;;59.33;41.77;;;;;;;;;;5093628;28;20466;-60
2021/03/25 11:57:26;;;;;;;59.73;41.70;;;;;;;;;;5093902;28;20451;-62
2021/03/25 12:00:05;;;;;;;61.13;42.77;;;;;;;;;;5094196;28;20906;-60
2021/03/25 12:02:32;;;;;;;57.87;40.00;;;;;;;;;;5093925;28;20438;-60
2021/03/25 12:05:19;;;;;;;57.53;40.50;;;;;;;;;;5093383;28;20813;-60
2021/03/25 12:07:46;;;;;;;53.70;37.50;;;;;;;;;;5094025;28;20486;-60
2021/03/25 12:10:20;;;;;;;66.30;41.80;;;;;;;;;;5101200;28;20511;-62
2021/03/25 12:12:48;;;;;;;58.13;39.67;;;;;;;;;;5098184;28;20438;-62
2021/03/25 12:15:16;;;;;;;59.90;39.40;;;;;;;;;;5094227;28;20470;-62
2021/03/25 12:17:44;;;;;;;64.80;40.10;;;;;;;;;;5094888;28;20461;-60
2021/03/25 12:20:19;;;;;;;56.13;39.80;;;;;;;;;;5094383;28;20487;-61
2021/03/25 12:22:45;;;;;;;69.37;40.03;;;;;;;;;;5095208;28;20479;-62
2021/03/25 12:25:13;;;;;;;60.03;39.47;;;;;;;;;;5095030;28;20536;-61
2021/03/25 12:27:40;;;;;;;56.47;39.60;;;;;;;;;;5097590;28;20464;-61
2021/03/25 12:30:07;;;;;;;59.23;40.00;;;;;;;;;;5102326;28;20207;-61
2021/03/25 12:32:35;;;;;;;56.13;38.77;;;;;;;;;;5103089;28;20797;-60
2021/03/25 12:35:02;;;;;;;51.10;36.63;;;;;;;;;;5100794;28;20461;-61
2021/03/25 12:37:29;;;;;;;56.90;38.13;;;;;;;;;;5101255;28;20442;-60
2021/03/25 12:39:56;;;;;;;59.40;38.53;;;;;;;;;;5100908;28;20449;-62
2021/03/25 12:42:23;;;;;;;60.37;41.17;;;;;;;;;;5101045;28;20453;-60
2021/03/25 12:44:50;;;;;;;61.13;40.30;;;;;;;;;;5099933;28;20493;-61
2021/03/25 12:47:17;;;;;;;57.83;41.13;;;;;;;;;;5098458;28;20866;-61
2021/03/25 12:49:44;;;;;;;56.83;36.63;;;;;;;;;;5098863;28;20454;-61
2021/03/25 12:52:11;;;;;;;47.30;35.20;;;;;;;;;;5097763;28;20453;-61
2021/03/25 12:54:38;;;;;;;53.72;38.25;;;;;;;;;;5096555;28;20506;-61
2021/03/25 12:57:05;;;;;;;50.67;37.20;;;;;;;;;;5097191;28;20991;-61
2021/03/25 12:59:31;;;;;;;50.10;33.73;;;;;;;;;;5097766;28;20495;-61
2021/03/25 13:01:58;;;;;;;50.60;37.10;;;;;;;;;;5096975;28;20452;-61
2021/03/25 13:04:25;;;;;;;54.17;36.03;;;;;;;;;;5096610;28;20458;-61
2021/03/25 13:06:53;;;;;;;52.00;38.25;;;;;;;;;;5096277;28;20448;-62
2021/03/25 13:09:19;;;;;;;45.37;36.63;;;;;;;;;;5096957;28;20253;-60
2021/03/25 13:11:46;;;;;;;52.27;36.90;;;;;;;;;;5096748;28;20437;-60
2021/03/25 13:14:13;;;;;;;53.43;36.07;;;;;;;;;;5096799;28;20471;-61
2021/03/25 13:16:39;;;;;;;51.37;36.50;;;;;;;;;;5096540;28;20445;-61
2021/03/25 13:19:06;;;;;;;51.37;36.40;;;;;;;;;;5096776;28;20446;-61
2021/03/25 13:21:33;;;;;;;53.47;38.75;;;;;;;;;;5095522;28;20428;-61
2021/03/25 13:24:00;;;;;;;50.93;37.20;;;;;;;;;;5096322;28;20273;-60
2021/03/25 13:26:27;;;;;;;47.63;36.00;;;;;;;;;;5096540;28;20460;-60
2021/03/25 13:28:54;;;;;;;53.27;35.93;;;;;;;;;;5096394;28;20507;-61
2021/03/25 13:31:21;;;;;;;51.63;36.37;;;;;;;;;;5095878;28;20446;-59
2021/03/25 13:33:48;;;;;;;51.80;37.30;;;;;;;;;;5096879;28;20450;-60
2021/03/25 13:36:15;;;;;;;53.80;37.70;;;;;;;;;;5096290;28;20446;-60
2021/03/25 13:38:41;;;;;;;52.00;36.57;;;;;;;;;;5095620;28;20439;-59
2021/03/25 13:41:09;;;;;;;55.83;36.37;;;;;;;;;;5095632;28;20435;-58
2021/03/25 13:43:36;;;;;;;55.27;38.00;;;;;;;;;;5095801;28;20456;-60
2021/03/25 13:46:04;;;;;;;51.77;36.63;;;;;;;;;;5099940;28;20446;-60
2021/03/25 13:48:30;;;;;;;47.87;35.40;;;;;;;;;;5105702;28;20478;-60
2021/03/25 13:50:57;;;;;;;52.00;36.37;;;;;;;;;;5096503;28;20832;-60
2021/03/25 13:53:24;;;;;;;52.63;35.87;;;;;;;;;;5095836;28;20876;-60
2021/03/25 13:55:51;;;;;;;49.30;35.00;;;;;;;;;;5095495;28;20454;-60
2021/03/25 13:58:21;;;;;;;48.70;35.40;;;;;;;;;;5095671;28;20450;-61
2021/03/25 14:00:48;;;;;;;50.85;37.13;;;;;;;;;;5095287;28;20459;-61
2021/03/25 14:03:15;;;;;;;49.58;37.75;;;;;;;;;;5094504;28;20432;-60
2021/03/25 14:05:43;;;;;;;51.53;36.97;;;;;;;;;;5095296;28;20223;-61
2021/03/25 14:08:09;;;;;;;49.55;37.08;;;;;;;;;;5094562;28;20452;-60
2021/03/25 14:10:37;;;;;;;53.30;37.30;;;;;;;;;;5095512;28;20200;-61
2021/03/25 14:13:05;;;;;;;50.00;35.67;;;;;;;;;;5095627;28;20446;-59
2021/03/25 14:15:33;;;;;;;49.87;35.80;;;;;;;;;;5095165;28;20466;-60
2021/03/25 14:18:00;;;;;;;50.10;34.73;;;;;;;;;;5095410;28;20449;-59
2021/03/25 14:20:28;;;;;;;50.07;34.90;;;;;;;;;;5095251;28;20438;-60
2021/03/25 14:22:55;;;;;;;51.23;35.80;;;;;;;;;;5094665;28;20453;-60
2021/03/25 14:25:23;;;;;;;50.07;35.60;;;;;;;;;;5096258;28;20462;-59
2021/03/25 14:27:50;;;;;;;52.47;35.70;;;;;;;;;;5095688;28;20474;-58
2021/03/25 14:30:18;;;;;;;54.93;35.23;;;;;;;;;;5095234;28;20523;-60
2021/03/25 14:32:46;;;;;;;53.13;37.23;;;;;;;;;;5094656;28;20934;-59
2021/03/25 14:35:13;;;;;;;47.50;34.10;;;;;;;;;;5095314;28;20462;-61